createdAt,value
2019-03-08T00:01:10.276Z,0.80
2019-03-08T00:03:46.567Z,0.80
2019-03-08T00:06:21.478Z,0.90
2019-03-08T00:08:56.012Z,0.60
2019-03-08T00:11:31.221Z,0.60
2019-03-08T00:14:12.423Z,0.50
2019-03-08T00:16:49.984Z,0.80
2019-03-08T00:19:25.439Z,0.80
2019-03-08T00:22:00.471Z,0.70
2019-03-08T00:24:36.392Z,0.50
2019-03-08T00:27:17.111Z,0.40
2019-03-08T00:29:54.244Z,0.40
2019-03-08T00:32:29.912Z,0.40
2019-03-08T00:35:06.075Z,0.33
2019-03-08T00:37:40.591Z,0.50
2019-03-08T00:40:16.663Z,0.60
2019-03-08T00:42:52.350Z,0.53
2019-03-08T00:45:29.342Z,0.40
2019-03-08T00:48:04.166Z,0.50
2019-03-08T00:50:46.267Z,0.97
2019-03-08T00:56:27.741Z,0.40
2019-03-08T00:59:40.607Z,0.50
2019-03-08T01:02:29.353Z,0.60
2019-03-08T01:05:16.819Z,0.70
2019-03-08T01:07:51.207Z,0.60
2019-03-08T01:10:32.207Z,0.60
2019-03-08T01:13:29.006Z,0.73
2019-03-08T01:16:20.644Z,0.60
2019-03-08T01:19:05.346Z,1.57
2019-03-08T01:21:48.907Z,0.60
2019-03-08T01:24:26.414Z,0.40
2019-03-08T01:27:06.783Z,0.40
2019-03-08T01:30:27.789Z,0.70
2019-03-08T01:33:14.702Z,0.60
2019-03-08T01:35:49.977Z,0.50
2019-03-08T01:38:27.979Z,0.63
2019-03-08T01:41:13.653Z,0.63
2019-03-08T01:43:50.103Z,0.90
2019-03-08T01:46:27.622Z,0.53
2019-03-08T01:49:06.540Z,0.70
2019-03-08T01:51:42.814Z,0.67
2019-03-08T01:54:20.374Z,0.60
2019-03-08T01:56:56.770Z,0.60
2019-03-08T01:59:35.903Z,0.63
2019-03-08T02:02:12.947Z,0.80
2019-03-08T02:04:51.130Z,0.57
2019-03-08T02:07:30.062Z,0.80
2019-03-08T02:10:09.535Z,0.60
2019-03-08T02:12:44.123Z,0.70
2019-03-08T02:15:21.351Z,0.60
2019-03-08T02:17:59.002Z,0.80
2019-03-08T02:20:37.119Z,0.60
2019-03-08T02:23:12.520Z,0.57
2019-03-08T02:25:50.740Z,0.83
2019-03-08T02:28:40.814Z,0.60
2019-03-08T02:31:17.448Z,0.70
2019-03-08T02:33:54.298Z,0.70
2019-03-08T02:36:33.439Z,0.80
2019-03-08T02:39:11.738Z,0.60
2019-03-08T02:41:51.700Z,0.97
2019-03-08T02:44:31.555Z,0.80
2019-03-08T02:47:12.359Z,0.70
2019-03-08T02:49:47.678Z,1.00
2019-03-08T02:52:28.860Z,1.03
2019-03-08T02:55:08.755Z,1.17
2019-03-08T02:57:45.824Z,1.30
2019-03-08T03:00:33.786Z,1.23
2019-03-08T03:03:18.135Z,1.07
2019-03-08T03:06:11.240Z,1.00
2019-03-08T03:08:48.278Z,1.33
2019-03-08T03:11:29.073Z,1.30
2019-03-08T03:14:09.842Z,1.37
2019-03-08T03:16:48.331Z,1.20
2019-03-08T03:19:24.708Z,1.30
2019-03-08T03:24:59.107Z,1.27
2019-03-08T03:27:33.755Z,1.47
2019-03-08T03:30:10.896Z,1.40
2019-03-08T03:32:53.227Z,1.30
2019-03-08T03:35:33.879Z,1.80
2019-03-08T03:38:12.021Z,1.20
2019-03-08T03:40:48.055Z,1.07
2019-03-08T03:43:24.744Z,1.30
2019-03-08T03:46:01.486Z,1.50
2019-03-08T03:48:37.766Z,1.13
2019-03-08T03:51:22.766Z,1.40
2019-03-08T03:54:03.566Z,1.03
2019-03-08T03:56:39.156Z,0.90
2019-03-08T03:59:20.784Z,1.00
2019-03-08T04:01:55.851Z,1.07
2019-03-08T04:04:32.158Z,0.83
2019-03-08T04:07:10.499Z,1.00
2019-03-08T04:09:47.452Z,0.90
2019-03-08T04:12:22.285Z,1.00
2019-03-08T04:14:56.590Z,0.80
2019-03-08T04:17:42.403Z,0.70
2019-03-08T04:20:22.324Z,1.03
2019-03-08T04:22:56.949Z,0.90
2019-03-08T04:25:47.796Z,0.87
2019-03-08T04:28:33.063Z,0.90
2019-03-08T04:31:17.120Z,1.00
2019-03-08T04:34:03.980Z,0.97
2019-03-08T04:36:41.972Z,0.93
2019-03-08T04:39:19.867Z,1.20
2019-03-08T04:41:58.894Z,1.20
2019-03-08T04:44:40.757Z,0.90
2019-03-08T04:47:21.955Z,1.20
2019-03-08T04:50:14.359Z,0.93
2019-03-08T04:52:53.273Z,1.10
2019-03-08T04:55:27.864Z,0.93
2019-03-08T04:58:05.021Z,1.20
2019-03-08T05:00:46.566Z,1.03
2019-03-08T05:03:26.563Z,0.90
2019-03-08T05:06:02.607Z,1.00
2019-03-08T05:08:39.946Z,0.97
2019-03-08T05:11:31.115Z,1.00
2019-03-08T05:14:16.122Z,1.00
2019-03-08T05:17:09.040Z,1.10
2019-03-08T05:19:47.958Z,1.27
2019-03-08T05:22:27.808Z,1.40
2019-03-08T05:25:05.638Z,1.30
2019-03-08T05:27:47.973Z,1.20
2019-03-08T05:30:34.531Z,0.90
2019-03-08T05:33:28.610Z,1.40
2019-03-08T05:36:15.375Z,1.20
2019-03-08T05:38:55.280Z,1.40
2019-03-08T05:41:38.082Z,1.50
2019-03-08T05:44:16.882Z,1.20
2019-03-08T05:47:06.856Z,1.43
2019-03-08T05:53:36.935Z,1.10
2019-03-08T05:56:17.147Z,1.30
2019-03-08T05:58:57.445Z,1.10
2019-03-08T06:01:47.858Z,1.50
2019-03-08T06:04:35.721Z,1.00
2019-03-08T06:07:14.902Z,1.30
2019-03-08T06:09:55.695Z,1.10
2019-03-08T06:12:31.521Z,1.20
2019-03-08T06:19:09.751Z,1.40
2019-03-08T06:21:50.421Z,1.20
2019-03-08T06:24:31.296Z,1.33
2019-03-08T06:27:16.381Z,1.83
2019-03-08T06:30:04.888Z,1.23
2019-03-08T06:32:47.226Z,1.47
2019-03-08T06:35:30.284Z,1.40
2019-03-08T06:38:05.121Z,1.80
2019-03-08T06:40:49.882Z,1.63
2019-03-08T06:43:49.992Z,1.53
2019-03-08T06:46:40.809Z,1.70
2019-03-08T06:49:43.872Z,1.60
2019-03-08T06:52:40.588Z,1.10
2019-03-08T06:55:40.519Z,1.50
2019-03-08T06:58:50.718Z,1.40
2019-03-08T07:05:54.167Z,1.50
2019-03-08T07:12:03.249Z,1.40
2019-03-08T07:14:44.578Z,1.63
2019-03-08T07:17:35.141Z,1.63
2019-03-08T07:20:46.094Z,1.93
2019-03-08T07:23:51.101Z,1.60
2019-03-08T07:26:49.435Z,1.60
2019-03-08T07:29:45.394Z,1.70
2019-03-08T07:32:38.602Z,1.50
2019-03-08T07:35:40.165Z,1.63
2019-03-08T07:39:00.178Z,1.53
2019-03-08T07:42:04.123Z,2.00
2019-03-08T07:44:59.758Z,1.67
2019-03-08T07:47:51.255Z,1.83
2019-03-08T07:51:06.035Z,1.60
2019-03-08T07:54:13.940Z,1.70
2019-03-08T07:57:30.514Z,1.57
2019-03-08T08:00:34.725Z,1.80
2019-03-08T08:03:35.399Z,1.40
2019-03-08T08:06:47.665Z,1.80
2019-03-08T08:09:53.692Z,1.47
2019-03-08T08:13:04.188Z,1.40
2019-03-08T08:19:16.777Z,1.80
2019-03-08T08:22:24.060Z,1.60
2019-03-08T08:26:03.945Z,1.47
2019-03-08T08:29:02.859Z,1.50
2019-03-08T08:31:57.020Z,1.37
2019-03-08T08:35:14.277Z,1.83
2019-03-08T08:38:09.148Z,1.80
2019-03-08T08:41:02.217Z,1.73
2019-03-08T08:43:55.405Z,2.07
2019-03-08T08:47:00.891Z,1.83
2019-03-08T08:50:01.890Z,1.30
2019-03-08T08:52:57.251Z,1.60
2019-03-08T08:55:54.464Z,1.40
2019-03-08T08:58:42.605Z,1.60
2019-03-08T09:01:38.172Z,1.40
2019-03-08T09:04:38.231Z,1.70
2019-03-08T09:07:35.406Z,1.80
2019-03-08T09:10:37.483Z,1.60
2019-03-08T09:13:40.302Z,1.30
2019-03-08T09:16:40.344Z,1.50
2019-03-08T09:19:48.444Z,1.17
2019-03-08T09:22:52.095Z,1.20
2019-03-08T09:25:48.610Z,1.33
2019-03-08T09:29:05.655Z,1.60
2019-03-08T09:32:01.178Z,1.20
2019-03-08T09:34:50.706Z,1.47
2019-03-08T09:37:49.017Z,1.60
2019-03-08T09:40:56.914Z,1.70
2019-03-08T09:44:00.939Z,1.43
2019-03-08T09:46:58.685Z,1.37
2019-03-08T09:50:13.793Z,1.40
2019-03-08T09:53:03.511Z,1.40
2019-03-08T09:55:45.754Z,1.50
2019-03-08T09:58:56.656Z,1.40
2019-03-08T10:01:54.924Z,1.37
2019-03-08T10:04:57.401Z,1.40
2019-03-08T10:08:02.828Z,1.47
2019-03-08T10:11:14.110Z,1.43
2019-03-08T10:14:11.313Z,1.50
2019-03-08T10:17:17.825Z,1.40
2019-03-08T10:20:15.722Z,1.53
2019-03-08T10:23:25.230Z,1.80
2019-03-08T10:26:28.791Z,1.20
2019-03-08T10:29:37.463Z,1.67
2019-03-08T10:33:04.475Z,1.80
2019-03-08T10:36:01.045Z,1.57
2019-03-08T10:38:46.317Z,1.60
2019-03-08T10:42:03.075Z,1.60
2019-03-08T10:45:14.235Z,1.40
2019-03-08T10:48:16.255Z,1.23
2019-03-08T10:51:03.476Z,1.00
2019-03-08T10:54:01.128Z,1.27
2019-03-08T10:57:13.134Z,1.27
2019-03-08T11:00:20.639Z,1.10
2019-03-08T11:03:23.016Z,1.30
2019-03-08T11:06:13.166Z,1.50
2019-03-08T11:08:59.296Z,1.10
2019-03-08T11:12:12.271Z,1.50
2019-03-08T11:15:06.938Z,1.40
2019-03-08T11:18:09.270Z,1.50
2019-03-08T11:21:02.353Z,1.33
2019-03-08T11:24:10.428Z,1.10
2019-03-08T11:27:05.908Z,1.47
2019-03-08T11:30:14.708Z,1.50
2019-03-08T11:33:38.853Z,1.30
2019-03-08T11:36:49.474Z,1.40
2019-03-08T11:40:13.691Z,1.50
2019-03-08T11:43:06.647Z,1.80
2019-03-08T11:46:27.722Z,1.30
2019-03-08T11:49:38.615Z,1.70
2019-03-08T11:52:55.766Z,1.50
2019-03-08T11:59:07.000Z,1.80
2019-03-08T12:02:37.618Z,1.70
2019-03-08T12:05:21.866Z,1.63
2019-03-08T12:08:26.441Z,1.70
2019-03-08T12:11:50.428Z,1.80
2019-03-08T12:15:15.039Z,1.93
2019-03-08T12:18:28.280Z,2.00
2019-03-08T12:21:36.060Z,1.50
2019-03-08T12:24:35.743Z,1.70
2019-03-08T12:30:44.202Z,1.80
2019-03-08T12:33:44.770Z,1.80
2019-03-08T12:36:52.092Z,1.47
2019-03-08T12:39:50.221Z,1.63
2019-03-08T12:43:07.627Z,1.97
2019-03-08T12:45:58.387Z,1.90
2019-03-08T12:49:05.271Z,1.80
2019-03-08T12:52:24.104Z,1.73
2019-03-08T12:55:29.819Z,1.87
2019-03-08T12:58:31.419Z,1.70
2019-03-08T13:01:46.143Z,2.10
2019-03-08T13:04:40.127Z,1.87
2019-03-08T13:07:48.015Z,2.00
2019-03-08T13:10:23.947Z,1.90
2019-03-08T13:13:00.402Z,2.07
2019-03-08T13:15:40.915Z,1.77
2019-03-08T13:18:18.608Z,2.20
2019-03-08T13:20:54.706Z,2.13
2019-03-08T13:23:37.826Z,1.97
2019-03-08T13:26:22.424Z,1.77
2019-03-08T13:29:01.710Z,1.53
2019-03-08T13:32:10.529Z,1.70
2019-03-08T13:35:06.178Z,1.50
2019-03-08T13:38:00.822Z,1.77
2019-03-08T13:40:49.222Z,1.90
2019-03-08T13:43:35.080Z,1.80
2019-03-08T13:46:49.460Z,1.70
2019-03-08T13:49:25.616Z,1.90
2019-03-08T13:52:05.969Z,1.97
2019-03-08T13:54:40.981Z,1.97
2019-03-08T13:57:38.074Z,2.30
2019-03-08T14:00:20.619Z,2.50
2019-03-08T14:03:19.417Z,2.40
2019-03-08T14:06:14.587Z,1.70
2019-03-08T14:08:58.079Z,2.00
2019-03-08T14:11:59.886Z,2.53
2019-03-08T14:14:56.219Z,2.07
2019-03-08T14:17:39.096Z,2.00
2019-03-08T14:20:20.740Z,2.20
2019-03-08T14:23:02.621Z,1.90
2019-03-08T14:25:42.489Z,2.03
2019-03-08T14:28:20.579Z,2.10
2019-03-08T14:31:08.872Z,2.23
2019-03-08T14:33:47.774Z,2.00
2019-03-08T14:36:23.218Z,2.00
2019-03-08T14:38:59.309Z,1.97
2019-03-08T14:41:41.147Z,2.00
2019-03-08T14:44:36.628Z,2.20
2019-03-08T14:47:29.363Z,2.30
2019-03-08T14:50:06.359Z,2.60
2019-03-08T14:52:55.325Z,2.10
2019-03-08T14:55:35.418Z,2.50
2019-03-08T14:58:43.565Z,2.10
2019-03-08T15:01:21.962Z,2.73
2019-03-08T15:04:15.816Z,2.30
2019-03-08T15:07:01.305Z,2.00
2019-03-08T15:09:43.309Z,2.47
2019-03-08T15:12:19.025Z,2.40
2019-03-08T15:14:55.765Z,2.63
2019-03-08T15:17:33.578Z,2.50
2019-03-08T15:20:15.125Z,2.63
2019-03-08T15:22:51.584Z,2.60
2019-03-08T15:25:31.238Z,2.00
2019-03-08T15:28:05.970Z,2.47
2019-03-08T15:30:51.344Z,2.40
2019-03-08T15:33:40.392Z,2.23
2019-03-08T15:36:32.504Z,2.10
2019-03-08T15:39:15.861Z,1.87
2019-03-08T15:41:52.205Z,2.00
2019-03-08T15:44:29.779Z,1.90
2019-03-08T15:47:12.183Z,1.70
2019-03-08T15:49:44.829Z,1.67
2019-03-08T15:52:20.602Z,1.93
2019-03-08T15:54:57.287Z,2.40
2019-03-08T15:57:34.086Z,1.90
2019-03-08T16:00:21.382Z,2.10
2019-03-08T16:02:59.193Z,2.57
2019-03-08T16:05:39.275Z,2.30
2019-03-08T16:08:31.043Z,2.63
2019-03-08T16:11:13.365Z,2.17
2019-03-08T16:13:54.569Z,2.07
2019-03-08T16:16:36.273Z,2.33
2019-03-08T16:19:14.449Z,1.97
2019-03-08T16:21:54.867Z,1.80
2019-03-08T16:24:36.314Z,1.77
2019-03-08T16:27:14.130Z,1.93
2019-03-08T16:29:50.291Z,1.97
2019-03-08T16:33:08.872Z,1.83
2019-03-08T16:35:52.071Z,1.70
2019-03-08T16:39:02.016Z,1.80
2019-03-08T16:41:58.816Z,1.60
2019-03-08T16:44:50.760Z,1.83
2019-03-08T16:47:33.555Z,1.87
2019-03-08T16:50:22.282Z,1.80
2019-03-08T16:53:12.832Z,2.03
2019-03-08T16:56:00.988Z,2.10
2019-03-08T16:58:53.655Z,1.40
2019-03-08T17:02:00.316Z,1.40
2019-03-08T17:04:54.704Z,1.00
2019-03-08T17:07:41.509Z,0.70
2019-03-08T17:10:49.273Z,0.60
2019-03-08T17:13:55.791Z,0.60
2019-03-08T17:16:52.579Z,0.60
2019-03-08T17:19:49.271Z,0.60
2019-03-08T17:22:55.875Z,0.80
2019-03-08T17:25:50.127Z,0.80
2019-03-08T17:28:48.928Z,0.97
2019-03-08T17:31:42.191Z,0.90
2019-03-08T17:34:34.083Z,0.80
2019-03-08T17:37:20.442Z,0.93
2019-03-08T17:40:15.091Z,0.77
2019-03-08T17:43:09.824Z,0.67
2019-03-08T17:46:06.281Z,0.97
2019-03-08T17:48:57.703Z,1.00
2019-03-08T17:51:58.335Z,0.80
2019-03-08T17:54:55.699Z,1.03
2019-03-08T17:57:57.391Z,1.10
2019-03-08T18:00:58.224Z,1.37
2019-03-08T18:03:45.491Z,1.57
2019-03-08T18:06:47.390Z,1.60
2019-03-08T18:09:40.124Z,1.47
2019-03-08T18:12:38.222Z,1.60
2019-03-08T18:15:35.160Z,1.53
2019-03-08T18:18:42.616Z,1.30
2019-03-08T18:21:36.351Z,1.17
2019-03-08T18:24:30.082Z,1.50
2019-03-08T18:27:14.301Z,1.60
2019-03-08T18:30:13.386Z,1.63
2019-03-08T18:33:13.375Z,1.20
2019-03-08T18:36:13.270Z,1.30
2019-03-08T18:39:11.618Z,1.00
2019-03-08T18:42:19.172Z,1.03
2019-03-08T18:45:29.240Z,1.07
2019-03-08T18:48:23.926Z,1.07
2019-03-08T18:51:20.964Z,1.43
2019-03-08T18:54:22.772Z,1.00
2019-03-08T18:57:18.732Z,1.00
2019-03-08T19:00:21.137Z,0.90
2019-03-08T19:03:14.430Z,1.10
2019-03-08T19:05:59.324Z,1.10
2019-03-08T19:08:48.723Z,1.03
2019-03-08T19:11:47.914Z,0.90
2019-03-08T19:14:44.986Z,1.33
2019-03-08T19:17:45.466Z,1.20
2019-03-08T19:20:35.981Z,1.93
2019-03-08T19:23:23.743Z,1.97
2019-03-08T19:26:27.095Z,3.00
2019-03-08T19:29:25.937Z,2.83
2019-03-08T19:32:29.140Z,2.63
2019-03-08T19:35:25.674Z,2.20
2019-03-08T19:38:21.555Z,2.70
2019-03-08T19:41:33.181Z,2.27
2019-03-08T19:44:27.293Z,2.30
2019-03-08T19:47:29.093Z,1.87
2019-03-08T19:50:26.768Z,1.73
2019-03-08T19:53:20.675Z,2.00
2019-03-08T19:56:17.478Z,1.97
2019-03-08T19:59:16.667Z,1.93
2019-03-08T20:02:17.749Z,2.30
2019-03-08T20:05:07.449Z,2.10
2019-03-08T20:08:10.195Z,2.43
2019-03-08T20:11:08.539Z,2.53
2019-03-08T20:13:57.952Z,2.50
2019-03-08T20:16:51.963Z,2.67
2019-03-08T20:19:46.930Z,1.87
2019-03-08T20:22:42.082Z,2.30
2019-03-08T20:25:32.839Z,2.07
2019-03-08T20:28:31.276Z,1.60
2019-03-08T20:31:27.421Z,1.60
2019-03-08T20:34:13.878Z,1.90
2019-03-08T20:37:13.826Z,1.77
2019-03-08T20:40:10.566Z,1.53
2019-03-08T20:43:04.626Z,1.80
2019-03-08T20:45:59.197Z,1.43
2019-03-08T20:48:40.755Z,1.40
2019-03-08T20:51:23.671Z,1.47
2019-03-08T20:54:00.520Z,1.30
2019-03-08T20:56:38.038Z,1.30
2019-03-08T20:59:20.542Z,1.10
2019-03-08T21:01:57.722Z,1.07
2019-03-08T21:04:33.230Z,0.90
2019-03-08T21:07:11.731Z,0.70
2019-03-08T21:09:50.731Z,0.60
2019-03-08T21:12:29.029Z,0.47
2019-03-08T21:15:07.311Z,0.40
2019-03-08T21:17:54.384Z,0.40
2019-03-08T21:20:39.674Z,0.57
2019-03-08T21:23:19.847Z,0.90
2019-03-08T21:26:10.943Z,0.80
2019-03-08T21:28:47.293Z,1.10
2019-03-08T21:31:24.086Z,1.10
2019-03-08T21:34:02.628Z,1.00
2019-03-08T21:36:38.442Z,1.30
2019-03-08T21:39:18.412Z,0.83
2019-03-08T21:41:53.498Z,0.77
2019-03-08T21:44:28.364Z,0.70
2019-03-08T21:47:28.079Z,0.90
2019-03-08T21:50:50.246Z,1.00
2019-03-08T21:53:27.398Z,1.10
2019-03-08T21:56:03.530Z,0.97
2019-03-08T21:58:43.855Z,1.10
2019-03-08T22:01:29.106Z,0.93
2019-03-08T22:04:42.299Z,0.90
2019-03-08T22:07:31.927Z,0.77
2019-03-08T22:10:24.630Z,1.30
2019-03-08T22:12:59.699Z,0.77
2019-03-08T22:15:38.903Z,1.20
2019-03-08T22:18:21.048Z,1.10
2019-03-08T22:20:59.100Z,1.20
2019-03-08T22:23:40.169Z,0.93
2019-03-08T22:26:44.348Z,1.90
2019-03-08T22:29:23.134Z,0.90
2019-03-08T22:32:06.634Z,0.80
2019-03-08T22:34:48.737Z,1.10
2019-03-08T22:37:24.603Z,1.00
2019-03-08T22:40:08.116Z,0.80
2019-03-08T22:42:43.297Z,1.00
2019-03-08T22:45:20.010Z,1.10
2019-03-08T22:47:56.127Z,1.10
2019-03-08T22:50:33.663Z,1.47
2019-03-08T22:53:12.697Z,1.00
2019-03-08T22:55:53.066Z,1.20
2019-03-08T22:58:44.755Z,1.00
2019-03-08T23:01:24.419Z,1.00
2019-03-08T23:04:01.330Z,0.90
2019-03-08T23:06:37.104Z,0.80
2019-03-08T23:09:15.320Z,0.93
2019-03-08T23:11:51.915Z,0.87
2019-03-08T23:14:33.214Z,1.10
2019-03-08T23:17:12.031Z,1.30
2019-03-08T23:19:57.460Z,1.63
2019-03-08T23:22:33.415Z,1.20
2019-03-08T23:25:16.886Z,1.30
2019-03-08T23:27:59.274Z,1.03
2019-03-08T23:30:36.324Z,0.90
2019-03-08T23:33:13.243Z,0.90
2019-03-08T23:35:57.143Z,1.33
2019-03-08T23:38:42.397Z,1.50
2019-03-08T23:41:29.459Z,1.50
2019-03-08T23:44:18.261Z,1.83
2019-03-08T23:46:53.107Z,1.50
2019-03-08T23:49:32.063Z,1.50
2019-03-08T23:52:08.661Z,1.90
2019-03-08T23:54:45.582Z,2.10
2019-03-08T23:57:27.774Z,1.90
